createdAt,value
2019-03-23T00:01:07.673Z,8.12
2019-03-23T00:02:07.909Z,8.12
2019-03-23T00:04:12.061Z,8.15
2019-03-23T00:05:12.300Z,7.97
2019-03-23T00:07:16.473Z,7.97
2019-03-23T00:08:16.719Z,7.98
2019-03-23T00:10:20.890Z,7.89
2019-03-23T00:11:21.127Z,8.00
2019-03-23T00:13:25.276Z,7.98
2019-03-23T00:14:25.550Z,7.82
2019-03-23T00:16:29.680Z,7.61
2019-03-23T00:17:29.916Z,7.45
2019-03-23T00:19:22.997Z,7.39
2019-03-23T00:20:23.230Z,7.24
2019-03-23T00:22:27.406Z,7.24
2019-03-23T00:23:27.642Z,7.16
2019-03-23T00:25:31.815Z,7.16
2019-03-23T00:26:32.050Z,7.05
2019-03-23T00:28:36.200Z,6.92
2019-03-23T00:29:36.439Z,7.07
2019-03-23T00:31:40.612Z,7.06
2019-03-23T00:32:40.849Z,7.05
2019-03-23T00:34:45.003Z,7.15
2019-03-23T00:35:45.244Z,7.12
2019-03-23T00:37:49.410Z,7.05
2019-03-23T00:38:49.646Z,7.05
2019-03-23T00:40:53.818Z,6.88
2019-03-23T00:41:54.059Z,6.87
2019-03-23T00:43:58.204Z,6.55
2019-03-23T00:44:58.438Z,6.52
2019-03-23T00:47:02.619Z,6.48
2019-03-23T00:48:02.850Z,6.37
2019-03-23T00:50:07.032Z,6.21
2019-03-23T00:51:07.271Z,6.22
2019-03-23T00:53:11.421Z,6.04
2019-03-23T00:54:11.659Z,6.03
2019-03-23T00:56:16.614Z,5.82
2019-03-23T00:57:16.069Z,5.75
2019-03-23T00:59:09.153Z,5.57
2019-03-23T01:00:09.390Z,5.67
2019-03-23T01:02:13.563Z,5.57
2019-03-23T01:03:13.800Z,5.71
2019-03-23T01:05:17.975Z,5.78
2019-03-23T01:06:18.208Z,5.78
2019-03-23T01:08:22.361Z,5.91
2019-03-23T01:09:22.597Z,5.97
2019-03-23T01:11:26.776Z,6.06
2019-03-23T01:12:27.015Z,6.03
2019-03-23T01:14:31.168Z,6.09
2019-03-23T01:15:31.401Z,6.08
2019-03-23T01:17:35.577Z,6.17
2019-03-23T01:18:35.811Z,6.22
2019-03-23T01:20:49.356Z,6.18
2019-03-23T01:21:40.224Z,6.18
2019-03-23T01:23:44.418Z,6.18
2019-03-23T01:24:44.617Z,6.22
2019-03-23T01:26:48.791Z,6.22
2019-03-23T01:27:49.025Z,6.31
2019-03-23T01:29:42.106Z,6.30
2019-03-23T01:30:42.339Z,6.30
2019-03-23T01:32:46.526Z,6.19
2019-03-23T01:33:46.762Z,6.11
2019-03-23T01:35:50.937Z,5.97
2019-03-23T01:36:51.172Z,5.89
2019-03-23T01:38:55.325Z,5.79
2019-03-23T01:39:55.556Z,5.82
2019-03-23T01:41:59.748Z,6.04
2019-03-23T01:42:59.987Z,6.08
2019-03-23T01:45:04.137Z,6.30
2019-03-23T01:46:04.378Z,6.27
2019-03-23T01:48:08.548Z,6.25
2019-03-23T01:49:08.790Z,6.06
2019-03-23T01:51:12.956Z,6.00
2019-03-23T01:52:13.194Z,5.82
2019-03-23T01:54:17.344Z,5.61
2019-03-23T01:55:17.579Z,5.63
2019-03-23T01:57:21.758Z,5.43
2019-03-23T01:58:21.995Z,5.35
2019-03-23T02:00:26.148Z,5.42
2019-03-23T02:01:26.383Z,5.58
2019-03-23T02:03:30.554Z,5.68
2019-03-23T02:04:30.787Z,5.58
2019-03-23T02:06:34.958Z,5.33
2019-03-23T02:07:35.195Z,5.22
2019-03-23T02:09:28.268Z,5.15
2019-03-23T02:10:28.507Z,5.17
2019-03-23T02:12:32.688Z,5.22
2019-03-23T02:13:32.923Z,5.27
2019-03-23T02:15:37.096Z,5.61
2019-03-23T02:16:37.332Z,5.78
2019-03-23T02:18:41.513Z,5.83
2019-03-23T02:19:41.752Z,5.96
2019-03-23T02:21:45.932Z,6.15
2019-03-23T02:22:46.168Z,6.31
2019-03-23T02:24:50.810Z,6.44
2019-03-23T02:25:51.045Z,6.48
2019-03-23T02:27:55.220Z,6.70
2019-03-23T02:28:55.455Z,6.66
2019-03-23T02:30:59.631Z,6.55
2019-03-23T02:31:59.867Z,6.49
2019-03-23T02:34:04.017Z,6.38
2019-03-23T02:35:04.256Z,6.28
2019-03-23T02:37:08.432Z,6.28
2019-03-23T02:38:08.675Z,6.08
2019-03-23T02:40:12.825Z,5.86
2019-03-23T02:41:13.061Z,5.83
2019-03-23T02:43:17.229Z,5.71
2019-03-23T02:44:17.473Z,5.75
2019-03-23T02:46:22.666Z,5.93
2019-03-23T02:47:22.900Z,5.89
2019-03-23T02:49:15.993Z,5.90
2019-03-23T02:50:16.227Z,5.91
2019-03-23T02:52:20.402Z,5.90
2019-03-23T02:53:20.636Z,5.68
2019-03-23T02:55:24.799Z,5.74
2019-03-23T02:56:25.024Z,5.48
2019-03-23T02:58:30.212Z,5.39
2019-03-23T02:59:30.453Z,5.30
2019-03-23T03:01:34.621Z,5.13
2019-03-23T03:02:34.857Z,5.09
2019-03-23T03:04:39.008Z,5.04
2019-03-23T03:05:39.246Z,4.92
2019-03-23T03:07:43.927Z,5.03
2019-03-23T03:08:43.659Z,5.00
2019-03-23T03:10:47.811Z,4.82
2019-03-23T03:11:48.051Z,4.84
2019-03-23T03:13:52.231Z,5.06
2019-03-23T03:14:52.466Z,5.12
2019-03-23T03:16:56.650Z,5.45
2019-03-23T03:17:56.880Z,5.53
2019-03-23T03:20:01.029Z,5.21
2019-03-23T03:21:01.263Z,5.24
2019-03-23T03:23:05.454Z,5.04
2019-03-23T03:24:05.678Z,5.06
2019-03-23T03:26:09.846Z,4.92
2019-03-23T03:27:10.084Z,4.78
2019-03-23T03:29:03.218Z,5.00
2019-03-23T03:30:03.433Z,5.04
2019-03-23T03:32:07.598Z,5.09
2019-03-23T03:33:07.830Z,5.10
2019-03-23T03:35:11.981Z,5.07
2019-03-23T03:36:12.218Z,5.00
2019-03-23T03:38:16.402Z,4.80
2019-03-23T03:39:16.625Z,4.66
2019-03-23T03:41:20.804Z,4.20
2019-03-23T03:42:21.040Z,4.16
2019-03-23T03:44:25.189Z,3.75
2019-03-23T03:45:25.429Z,3.87
2019-03-23T03:47:29.600Z,3.87
2019-03-23T03:48:29.831Z,3.86
2019-03-23T03:50:33.981Z,3.91
2019-03-23T03:51:34.223Z,3.90
2019-03-23T03:53:38.402Z,3.84
2019-03-23T03:54:38.637Z,3.88
2019-03-23T03:56:42.815Z,3.86
2019-03-23T03:57:43.069Z,3.91
2019-03-23T03:59:36.161Z,4.37
2019-03-23T04:00:36.379Z,4.47
2019-03-23T04:02:40.554Z,4.72
2019-03-23T04:03:40.799Z,4.85
2019-03-23T04:05:44.949Z,5.07
2019-03-23T04:06:45.197Z,5.00
2019-03-23T04:08:50.380Z,4.86
2019-03-23T04:09:50.611Z,4.85
2019-03-23T04:11:54.788Z,4.70
2019-03-23T04:12:55.025Z,4.75
2019-03-23T04:14:59.175Z,4.73
2019-03-23T04:15:59.413Z,4.72
2019-03-23T04:18:03.612Z,4.67
2019-03-23T04:19:03.841Z,4.60
2019-03-23T04:21:07.983Z,4.65
2019-03-23T04:22:08.226Z,4.70
2019-03-23T04:24:12.396Z,4.82
2019-03-23T04:25:12.633Z,4.77
2019-03-23T04:27:16.812Z,4.88
2019-03-23T04:28:17.043Z,4.77
2019-03-23T04:30:21.203Z,4.75
2019-03-23T04:31:21.445Z,4.67
2019-03-23T04:33:25.629Z,4.65
2019-03-23T04:34:25.859Z,4.65
2019-03-23T04:36:30.029Z,4.59
2019-03-23T04:37:30.271Z,4.54
2019-03-23T04:39:23.362Z,4.55
2019-03-23T04:40:23.596Z,4.48
2019-03-23T04:42:27.767Z,4.45
2019-03-23T04:43:28.006Z,4.27
2019-03-23T04:45:32.157Z,4.14
2019-03-23T04:46:32.393Z,4.00
2019-03-23T04:48:36.573Z,3.96
2019-03-23T04:49:36.814Z,3.90
2019-03-23T04:51:40.984Z,3.72
2019-03-23T04:52:41.215Z,3.69
2019-03-23T04:54:45.373Z,3.69
2019-03-23T04:55:45.606Z,3.61
2019-03-23T04:57:49.781Z,3.72
2019-03-23T04:58:50.012Z,3.80
2019-03-23T05:00:54.163Z,3.98
2019-03-23T05:01:54.403Z,3.94
2019-03-23T05:03:58.579Z,3.96
2019-03-23T05:04:58.819Z,3.96
2019-03-23T05:07:02.999Z,3.93
2019-03-23T05:08:03.234Z,3.84
2019-03-23T05:10:07.403Z,3.69
2019-03-23T05:11:07.632Z,3.60
2019-03-23T05:13:11.806Z,3.54
2019-03-23T05:14:12.047Z,3.40
2019-03-23T05:16:16.200Z,3.45
2019-03-23T05:17:16.439Z,3.36
2019-03-23T05:19:09.541Z,3.40
2019-03-23T05:20:09.778Z,3.29
2019-03-23T05:22:13.978Z,3.36
2019-03-23T05:23:14.214Z,3.60
2019-03-23T05:25:18.368Z,3.94
2019-03-23T05:26:18.607Z,3.90
2019-03-23T05:28:22.780Z,3.97
2019-03-23T05:29:23.016Z,4.08
2019-03-23T05:31:27.172Z,3.90
2019-03-23T05:32:27.411Z,3.86
2019-03-23T05:34:31.585Z,3.78
2019-03-23T05:35:31.820Z,3.76
2019-03-23T05:37:35.998Z,3.54
2019-03-23T05:38:43.857Z,3.54
2019-03-23T05:40:40.383Z,3.42
2019-03-23T05:41:40.622Z,3.40
2019-03-23T05:43:44.795Z,3.35
2019-03-23T05:44:45.031Z,3.45
2019-03-23T05:46:50.220Z,3.51
2019-03-23T05:47:50.461Z,3.61
2019-03-23T05:49:43.550Z,3.65
2019-03-23T05:50:43.782Z,3.87
2019-03-23T05:52:47.952Z,3.91
2019-03-23T05:53:48.188Z,3.94
2019-03-23T05:55:52.342Z,4.48
2019-03-23T05:56:52.576Z,4.86
2019-03-23T05:58:57.241Z,5.43
2019-03-23T05:59:57.478Z,5.54
2019-03-23T06:02:01.654Z,5.10
2019-03-23T06:03:01.897Z,5.13
2019-03-23T06:05:06.042Z,5.28
2019-03-23T06:06:06.283Z,5.49
2019-03-23T06:08:10.455Z,5.90
2019-03-23T06:09:10.703Z,6.06
2019-03-23T06:11:14.841Z,6.61
2019-03-23T06:12:15.076Z,6.71
2019-03-23T06:14:19.255Z,7.52
2019-03-23T06:15:19.486Z,8.44
2019-03-23T06:17:23.663Z,9.65
2019-03-23T06:18:23.898Z,9.93
2019-03-23T06:20:28.048Z,10.67
2019-03-23T06:21:28.284Z,10.92
2019-03-23T06:23:32.962Z,11.15
2019-03-23T06:24:33.198Z,11.54
2019-03-23T06:26:37.467Z,12.04
2019-03-23T06:27:37.580Z,12.17
2019-03-23T06:29:30.680Z,12.77
2019-03-23T06:30:30.915Z,12.75
2019-03-23T06:32:35.089Z,13.32
2019-03-23T06:33:35.326Z,13.73
2019-03-23T06:35:39.480Z,13.84
2019-03-23T06:36:39.718Z,13.30
2019-03-23T06:38:43.893Z,11.22
2019-03-23T06:39:44.130Z,10.71
2019-03-23T06:41:48.284Z,10.15
2019-03-23T06:42:59.123Z,10.53
2019-03-23T06:44:52.698Z,12.02
2019-03-23T06:45:52.924Z,12.71
2019-03-23T06:47:57.095Z,13.23
2019-03-23T06:48:57.333Z,14.00
2019-03-23T06:51:03.334Z,15.13
2019-03-23T06:52:01.726Z,15.39
2019-03-23T06:54:05.905Z,16.02
2019-03-23T06:55:06.144Z,16.07
2019-03-23T06:57:10.299Z,15.89
2019-03-23T06:58:10.540Z,15.89
2019-03-23T07:00:14.715Z,15.94
2019-03-23T07:01:14.952Z,15.83
2019-03-23T07:03:19.132Z,16.15
2019-03-23T07:04:19.371Z,16.25
2019-03-23T07:06:23.533Z,16.11
2019-03-23T07:07:23.771Z,15.06
2019-03-23T07:09:16.884Z,16.28
2019-03-23T07:10:17.126Z,16.60
2019-03-23T07:12:21.303Z,17.41
2019-03-23T07:13:21.547Z,17.49
2019-03-23T07:15:25.725Z,17.79
2019-03-23T07:16:25.965Z,18.18
2019-03-23T07:18:30.151Z,18.29
2019-03-23T07:19:30.396Z,18.48
2019-03-23T07:21:34.558Z,18.66
2019-03-23T07:22:34.802Z,18.87
2019-03-23T07:24:38.987Z,19.32
2019-03-23T07:25:39.229Z,19.22
2019-03-23T07:27:43.416Z,19.00
2019-03-23T07:28:43.660Z,18.99
2019-03-23T07:30:47.830Z,19.22
2019-03-23T07:31:48.074Z,18.39
2019-03-23T07:33:52.261Z,18.39
2019-03-23T07:34:52.505Z,18.62
2019-03-23T07:36:56.671Z,18.84
2019-03-23T07:37:56.920Z,19.10
2019-03-23T07:40:01.107Z,19.33
2019-03-23T07:41:01.349Z,19.44
2019-03-23T07:43:05.537Z,19.80
2019-03-23T07:44:05.782Z,19.81
2019-03-23T07:46:09.945Z,19.69
2019-03-23T07:47:10.190Z,19.39
2019-03-23T07:49:03.303Z,18.78
2019-03-23T07:50:03.548Z,18.88
2019-03-23T07:52:07.723Z,19.04
2019-03-23T07:53:07.966Z,19.00
2019-03-23T07:55:12.160Z,19.39
2019-03-23T07:56:12.405Z,19.58
2019-03-23T07:58:16.605Z,19.54
2019-03-23T07:59:16.848Z,19.63
2019-03-23T08:01:21.013Z,20.41
2019-03-23T08:02:21.261Z,20.82
2019-03-23T08:04:25.459Z,21.09
2019-03-23T08:05:25.697Z,21.40
2019-03-23T08:07:29.864Z,21.90
2019-03-23T08:08:30.111Z,22.37
2019-03-23T08:10:34.306Z,23.07
2019-03-23T08:11:34.578Z,23.25
2019-03-23T08:13:39.047Z,23.04
2019-03-23T08:14:39.066Z,23.20
2019-03-23T08:16:43.252Z,23.51
2019-03-23T08:17:43.503Z,23.40
2019-03-23T08:19:36.630Z,24.00
2019-03-23T08:20:36.873Z,24.30
2019-03-23T08:22:41.065Z,24.77
2019-03-23T08:23:41.306Z,24.76
2019-03-23T08:25:45.507Z,23.63
2019-03-23T08:26:45.761Z,22.95
2019-03-23T08:28:49.941Z,23.09
2019-03-23T08:29:50.185Z,22.80
2019-03-23T08:31:54.530Z,22.67
2019-03-23T08:32:54.634Z,22.42
2019-03-23T08:34:58.830Z,22.45
2019-03-23T08:35:59.082Z,22.61
2019-03-23T08:38:03.257Z,23.22
2019-03-23T08:39:03.508Z,23.47
2019-03-23T08:41:07.719Z,22.02
2019-03-23T08:42:07.968Z,22.07
2019-03-23T08:44:12.144Z,22.20
2019-03-23T08:45:12.400Z,22.21
2019-03-23T08:47:16.593Z,22.91
2019-03-23T08:48:16.843Z,23.16
2019-03-23T08:50:21.040Z,23.36
2019-03-23T08:51:21.292Z,22.92
2019-03-23T08:53:25.463Z,23.40
2019-03-23T08:54:25.714Z,23.50
2019-03-23T08:56:29.915Z,23.13
2019-03-23T08:57:30.165Z,23.47
2019-03-23T08:59:23.272Z,24.13
2019-03-23T09:00:23.522Z,23.48
2019-03-23T09:02:27.718Z,23.61
2019-03-23T09:03:27.969Z,23.63
2019-03-23T09:05:32.168Z,23.78
2019-03-23T09:06:32.422Z,23.17
2019-03-23T09:08:36.598Z,22.94
2019-03-23T09:09:36.849Z,23.15
2019-03-23T09:11:41.046Z,23.38
2019-03-23T09:12:41.298Z,23.35
2019-03-23T09:14:45.479Z,24.46
2019-03-23T09:15:45.731Z,24.30
2019-03-23T09:17:49.929Z,23.55
2019-03-23T09:18:50.192Z,23.65
2019-03-23T09:20:54.388Z,23.32
2019-03-23T09:21:54.643Z,23.78
2019-03-23T09:23:58.821Z,23.65
2019-03-23T09:24:59.076Z,23.76
2019-03-23T09:27:03.283Z,24.18
2019-03-23T09:28:03.534Z,23.85
2019-03-23T09:30:07.735Z,24.35
2019-03-23T09:31:07.995Z,24.69
2019-03-23T09:33:12.205Z,24.61
2019-03-23T09:34:12.452Z,24.12
2019-03-23T09:36:16.658Z,24.12
2019-03-23T09:37:16.914Z,24.34
2019-03-23T09:39:10.027Z,24.88
2019-03-23T09:40:11.351Z,25.18
2019-03-23T09:42:14.481Z,24.84
2019-03-23T09:43:14.733Z,24.24
2019-03-23T09:45:18.931Z,24.22
2019-03-23T09:46:19.165Z,24.61
2019-03-23T09:48:23.361Z,25.28
2019-03-23T09:49:23.612Z,25.58
2019-03-23T09:51:29.352Z,25.76
2019-03-23T09:52:28.067Z,25.50
2019-03-23T09:54:32.246Z,25.00
2019-03-23T09:55:32.499Z,25.43
2019-03-23T09:57:36.698Z,25.95
2019-03-23T09:58:36.954Z,25.85
2019-03-23T10:00:41.133Z,26.67
2019-03-23T10:01:41.389Z,26.48
2019-03-23T10:03:45.617Z,27.06
2019-03-23T10:04:45.871Z,26.50
2019-03-23T10:06:50.079Z,26.77
2019-03-23T10:07:50.336Z,26.81
2019-03-23T10:09:43.443Z,25.47
2019-03-23T10:10:43.701Z,25.64
2019-03-23T10:12:47.909Z,26.54
2019-03-23T10:13:48.160Z,26.81
2019-03-23T10:15:52.351Z,27.41
2019-03-23T10:16:52.605Z,27.94
2019-03-23T10:18:56.809Z,27.67
2019-03-23T10:19:57.064Z,27.18
2019-03-23T10:22:01.269Z,27.27
2019-03-23T10:23:01.526Z,27.36
2019-03-23T10:25:05.706Z,26.39
2019-03-23T10:26:05.959Z,26.48
2019-03-23T10:28:10.159Z,26.45
2019-03-23T10:29:10.416Z,26.87
2019-03-23T10:31:14.595Z,26.18
2019-03-23T10:32:14.850Z,26.45
2019-03-23T10:34:19.057Z,25.09
2019-03-23T10:35:19.309Z,25.06
2019-03-23T10:37:25.968Z,25.14
2019-03-23T10:38:23.776Z,25.61
2019-03-23T10:40:32.438Z,25.90
2019-03-23T10:41:28.215Z,26.09
2019-03-23T10:43:32.421Z,25.75
2019-03-23T10:44:32.672Z,25.60
2019-03-23T10:46:36.853Z,25.98
2019-03-23T10:47:37.201Z,26.63
2019-03-23T10:49:30.242Z,26.28
2019-03-23T10:50:30.492Z,25.57
2019-03-23T10:52:34.697Z,25.27
2019-03-23T10:53:34.954Z,25.24
2019-03-23T10:55:39.138Z,25.32
2019-03-23T10:56:39.394Z,25.42
2019-03-23T10:58:43.595Z,25.60
2019-03-23T10:59:43.849Z,25.65
2019-03-23T11:01:48.031Z,26.54
2019-03-23T11:02:48.287Z,26.82
2019-03-23T11:04:52.505Z,27.67
2019-03-23T11:05:52.763Z,27.75
2019-03-23T11:07:56.962Z,26.10
2019-03-23T11:08:57.215Z,26.05
2019-03-23T11:11:01.398Z,27.34
2019-03-23T11:12:01.651Z,27.62
2019-03-23T11:14:05.855Z,27.09
2019-03-23T11:15:06.113Z,27.51
2019-03-23T11:17:10.295Z,28.14
2019-03-23T11:18:10.555Z,28.09
2019-03-23T11:20:14.763Z,28.03
2019-03-23T11:21:15.022Z,26.99
2019-03-23T11:23:19.230Z,27.07
2019-03-23T11:24:19.487Z,27.10
2019-03-23T11:26:23.673Z,27.21
2019-03-23T11:27:23.927Z,26.81
2019-03-23T11:29:17.077Z,27.74
2019-03-23T11:30:17.339Z,28.25
2019-03-23T11:32:21.519Z,27.39
2019-03-23T11:33:21.774Z,27.63
2019-03-23T11:35:25.989Z,28.29
2019-03-23T11:36:26.250Z,27.06
2019-03-23T11:38:31.474Z,24.99
2019-03-23T11:39:31.729Z,24.18
2019-03-23T11:41:35.916Z,24.69
2019-03-23T11:42:36.173Z,25.30
2019-03-23T11:44:40.430Z,25.14
2019-03-23T11:45:40.637Z,24.24
2019-03-23T11:47:45.866Z,22.09
2019-03-23T11:48:46.097Z,22.37
2019-03-23T11:50:50.316Z,25.18
2019-03-23T11:51:50.629Z,26.06
2019-03-23T11:53:54.943Z,27.74
2019-03-23T11:54:55.267Z,26.76
2019-03-23T11:56:59.453Z,26.58
2019-03-23T11:57:59.711Z,26.57
2019-03-23T12:00:04.019Z,27.27
2019-03-23T12:01:04.322Z,27.88
2019-03-23T12:03:08.509Z,28.33
2019-03-23T12:04:08.768Z,27.70
2019-03-23T12:06:12.977Z,25.87
2019-03-23T12:07:13.265Z,26.15
2019-03-23T12:09:06.397Z,26.82
2019-03-23T12:10:06.652Z,26.70
2019-03-23T12:12:10.840Z,26.13
2019-03-23T12:13:11.095Z,26.75
2019-03-23T12:15:15.307Z,28.07
2019-03-23T12:16:15.558Z,28.64
2019-03-23T12:18:19.743Z,28.89
2019-03-23T12:19:20.052Z,28.15
2019-03-23T12:21:24.367Z,27.31
2019-03-23T12:22:24.673Z,26.80
2019-03-23T12:24:28.885Z,27.78
2019-03-23T12:25:29.141Z,27.93
2019-03-23T12:27:33.368Z,27.79
2019-03-23T12:28:33.666Z,28.44
2019-03-23T12:30:37.931Z,29.06
2019-03-23T12:31:38.183Z,28.83
2019-03-23T12:33:42.413Z,27.63
2019-03-23T12:34:42.711Z,27.47
2019-03-23T12:36:46.978Z,26.52
2019-03-23T12:37:47.314Z,26.25
2019-03-23T12:39:40.457Z,26.28
2019-03-23T12:40:40.704Z,26.81
2019-03-23T12:42:44.915Z,26.77
2019-03-23T12:43:45.229Z,27.51
2019-03-23T12:45:49.436Z,27.14
2019-03-23T12:46:49.714Z,27.75
2019-03-23T12:48:42.813Z,27.14
2019-03-23T12:49:43.067Z,26.82
2019-03-23T12:51:47.281Z,27.06
2019-03-23T12:52:47.568Z,27.67
2019-03-23T12:54:51.758Z,28.49
2019-03-23T12:55:52.018Z,28.49
2019-03-23T12:57:56.262Z,29.43
2019-03-23T12:58:56.519Z,29.37
2019-03-23T13:01:00.730Z,28.66
2019-03-23T13:02:00.983Z,27.41
2019-03-23T13:04:05.171Z,26.51
2019-03-23T13:05:05.431Z,26.94
2019-03-23T13:07:09.641Z,27.02
2019-03-23T13:08:09.897Z,27.03
2019-03-23T13:10:14.090Z,27.00
2019-03-23T13:11:23.113Z,26.88
2019-03-23T13:13:18.539Z,26.26
2019-03-23T13:14:18.793Z,26.21
2019-03-23T13:16:23.002Z,26.36
2019-03-23T13:17:23.262Z,26.57
2019-03-23T13:19:17.392Z,25.90
2019-03-23T13:20:17.678Z,25.92
2019-03-23T13:22:22.861Z,26.54
2019-03-23T13:23:23.118Z,26.63
2019-03-23T13:25:27.299Z,27.14
2019-03-23T13:26:27.553Z,27.65
2019-03-23T13:28:31.761Z,27.17
2019-03-23T13:29:32.024Z,26.97
2019-03-23T13:31:36.234Z,26.52
2019-03-23T13:32:36.487Z,26.63
2019-03-23T13:34:40.671Z,26.85
2019-03-23T13:35:40.927Z,26.63
2019-03-23T13:37:45.137Z,26.18
2019-03-23T13:38:45.389Z,25.87
2019-03-23T13:40:49.581Z,24.98
2019-03-23T13:41:49.837Z,24.77
2019-03-23T13:43:54.050Z,24.88
2019-03-23T13:44:54.303Z,25.10
2019-03-23T13:46:58.524Z,25.76
2019-03-23T13:47:58.780Z,25.25
2019-03-23T13:50:02.975Z,25.46
2019-03-23T13:51:03.226Z,25.32
2019-03-23T13:53:07.435Z,25.20
2019-03-23T13:54:07.691Z,25.55
2019-03-23T13:56:11.872Z,25.43
2019-03-23T13:57:12.127Z,25.30
2019-03-23T13:59:05.263Z,25.80
2019-03-23T14:00:05.510Z,25.90
2019-03-23T14:02:09.712Z,26.39
2019-03-23T14:03:09.968Z,26.48
2019-03-23T14:05:16.394Z,26.66
2019-03-23T14:06:14.406Z,26.75
2019-03-23T14:08:19.618Z,25.76
2019-03-23T14:09:19.874Z,25.10
2019-03-23T14:11:24.054Z,24.45
2019-03-23T14:12:24.312Z,23.87
2019-03-23T14:14:28.514Z,24.50
2019-03-23T14:15:28.771Z,24.99
2019-03-23T14:17:32.973Z,24.24
2019-03-23T14:18:33.235Z,24.45
2019-03-23T14:20:37.425Z,24.60
2019-03-23T14:21:37.678Z,24.27
2019-03-23T14:23:41.885Z,24.03
2019-03-23T14:24:42.137Z,23.80
2019-03-23T14:26:46.318Z,22.80
2019-03-23T14:27:46.573Z,22.18
2019-03-23T14:29:39.703Z,22.02
2019-03-23T14:30:39.964Z,21.75
2019-03-23T14:32:44.161Z,21.43
2019-03-23T14:33:44.416Z,21.44
2019-03-23T14:35:48.591Z,20.20
2019-03-23T14:36:48.848Z,20.57
2019-03-23T14:38:53.049Z,19.95
2019-03-23T14:39:53.298Z,20.24
2019-03-23T14:42:04.465Z,19.83
2019-03-23T14:42:57.727Z,19.41
2019-03-23T14:45:01.923Z,19.22
2019-03-23T14:46:02.172Z,19.32
2019-03-23T14:48:06.374Z,19.76
2019-03-23T14:49:06.626Z,19.95
2019-03-23T14:51:10.798Z,20.24
2019-03-23T14:52:11.052Z,19.86
2019-03-23T14:54:15.260Z,19.73
2019-03-23T14:55:15.519Z,20.08
2019-03-23T14:57:19.693Z,20.17
2019-03-23T14:58:19.944Z,19.43
2019-03-23T15:00:24.138Z,19.69
2019-03-23T15:01:24.389Z,19.47
2019-03-23T15:03:28.581Z,19.04
2019-03-23T15:04:28.827Z,18.75
2019-03-23T15:06:32.991Z,18.57
2019-03-23T15:07:33.243Z,18.62
2019-03-23T15:09:26.351Z,17.99
2019-03-23T15:10:26.603Z,18.10
2019-03-23T15:12:30.775Z,18.45
2019-03-23T15:13:31.042Z,18.47
2019-03-23T15:15:35.228Z,18.23
2019-03-23T15:16:35.474Z,18.17
2019-03-23T15:18:39.650Z,17.74
2019-03-23T15:19:39.899Z,17.01
2019-03-23T15:21:44.090Z,16.86
2019-03-23T15:22:44.339Z,16.56
2019-03-23T15:24:48.538Z,17.18
2019-03-23T15:25:48.786Z,17.31
2019-03-23T15:27:52.953Z,17.51
2019-03-23T15:28:53.201Z,17.06
2019-03-23T15:30:57.394Z,16.83
2019-03-23T15:31:57.642Z,16.58
2019-03-23T15:34:01.809Z,16.38
2019-03-23T15:35:02.058Z,16.31
2019-03-23T15:37:07.256Z,15.87
2019-03-23T15:38:07.501Z,16.08
2019-03-23T15:40:11.689Z,16.34
2019-03-23T15:41:11.935Z,16.35
2019-03-23T15:43:16.106Z,16.14
2019-03-23T15:44:16.351Z,16.14
2019-03-23T15:46:20.538Z,16.31
2019-03-23T15:47:20.788Z,16.61
2019-03-23T15:49:13.891Z,16.71
2019-03-23T15:50:14.129Z,16.73
2019-03-23T15:52:18.338Z,17.25
2019-03-23T15:53:18.586Z,17.31
2019-03-23T15:55:22.772Z,17.19
2019-03-23T15:56:23.016Z,17.06
2019-03-23T15:58:27.185Z,16.78
2019-03-23T15:59:27.431Z,16.70
2019-03-23T16:01:31.616Z,15.78
2019-03-23T16:02:31.861Z,15.53
2019-03-23T16:04:37.041Z,15.28
2019-03-23T16:05:37.288Z,15.25
2019-03-23T16:07:41.472Z,15.01
2019-03-23T16:08:41.716Z,15.19
2019-03-23T16:10:45.904Z,15.27
2019-03-23T16:11:46.149Z,15.28
2019-03-23T16:13:50.319Z,14.96
2019-03-23T16:14:50.568Z,14.83
2019-03-23T16:16:54.755Z,14.73
2019-03-23T16:17:55.005Z,14.40
2019-03-23T16:19:48.095Z,14.46
2019-03-23T16:20:48.335Z,14.50
2019-03-23T16:22:52.520Z,14.33
2019-03-23T16:23:52.765Z,14.50
2019-03-23T16:25:56.947Z,14.91
2019-03-23T16:26:57.194Z,14.83
2019-03-23T16:29:01.358Z,14.73
2019-03-23T16:30:01.602Z,14.84
2019-03-23T16:32:05.800Z,14.77
2019-03-23T16:33:06.029Z,14.40
2019-03-23T16:35:10.194Z,14.12
2019-03-23T16:36:10.437Z,13.81
2019-03-23T16:38:14.623Z,13.66
2019-03-23T16:39:14.865Z,13.59
2019-03-23T16:41:19.047Z,13.45
2019-03-23T16:42:19.293Z,13.28
2019-03-23T16:44:23.454Z,12.96
2019-03-23T16:45:23.696Z,12.93
2019-03-23T16:47:27.881Z,12.77
2019-03-23T16:48:28.120Z,12.72
2019-03-23T16:50:32.294Z,12.86
2019-03-23T16:51:32.556Z,12.95
2019-03-23T16:53:36.731Z,13.10
2019-03-23T16:54:36.976Z,13.04
2019-03-23T16:56:41.182Z,12.65
2019-03-23T16:57:41.427Z,12.41
2019-03-23T16:59:34.517Z,12.01
2019-03-23T17:00:34.754Z,11.76
2019-03-23T17:02:38.935Z,11.51
2019-03-23T17:03:39.174Z,11.35
2019-03-23T17:05:43.334Z,11.09
2019-03-23T17:06:46.544Z,11.02
2019-03-23T17:08:47.756Z,10.84
2019-03-23T17:09:48.000Z,10.68
2019-03-23T17:11:52.822Z,10.51
2019-03-23T17:12:55.541Z,10.45
2019-03-23T17:14:56.601Z,10.22
2019-03-23T17:15:56.830Z,10.11
2019-03-23T17:18:01.104Z,10.05
2019-03-23T17:19:01.362Z,9.94
2019-03-23T17:21:05.518Z,9.89
2019-03-23T17:22:05.862Z,9.69
2019-03-23T17:24:10.110Z,9.64
2019-03-23T17:25:11.409Z,9.61
2019-03-23T17:27:14.677Z,9.51
2019-03-23T17:28:14.994Z,9.50
2019-03-23T17:30:19.182Z,9.38
2019-03-23T17:31:19.449Z,9.35
2019-03-23T17:33:23.668Z,9.18
2019-03-23T17:34:23.939Z,9.17
2019-03-23T17:36:28.122Z,9.05
2019-03-23T17:37:28.414Z,8.91
2019-03-23T17:39:21.499Z,8.95
2019-03-23T17:40:21.787Z,8.95
2019-03-23T17:42:25.984Z,8.92
2019-03-23T17:43:26.253Z,8.86
2019-03-23T17:45:30.419Z,8.87
2019-03-23T17:46:30.651Z,8.79
2019-03-23T17:48:34.886Z,8.81
2019-03-23T17:49:35.168Z,8.70
2019-03-23T17:51:39.333Z,8.59
2019-03-23T17:52:39.594Z,8.61
2019-03-23T17:54:43.777Z,8.47
2019-03-23T17:55:44.016Z,8.41
2019-03-23T17:57:48.199Z,8.22
2019-03-23T17:58:48.492Z,8.23
2019-03-23T18:00:52.652Z,8.23
2019-03-23T18:01:52.947Z,8.16
2019-03-23T18:03:57.118Z,8.15
2019-03-23T18:04:57.356Z,8.12
2019-03-23T18:07:01.508Z,8.08
2019-03-23T18:08:01.753Z,7.95
2019-03-23T18:10:05.930Z,7.97
2019-03-23T18:11:06.160Z,7.89
2019-03-23T18:13:16.531Z,8.04
2019-03-23T18:14:10.570Z,7.90
2019-03-23T18:16:14.716Z,7.93
2019-03-23T18:17:14.955Z,7.95
2019-03-23T18:19:08.050Z,7.85
2019-03-23T18:20:08.289Z,7.92
2019-03-23T18:22:12.437Z,7.83
2019-03-23T18:23:12.671Z,7.83
2019-03-23T18:25:16.848Z,7.82
2019-03-23T18:26:17.080Z,7.77
2019-03-23T18:28:21.231Z,7.74
2019-03-23T18:29:21.469Z,7.75
2019-03-23T18:31:25.642Z,7.77
2019-03-23T18:32:25.874Z,7.77
2019-03-23T18:34:30.040Z,7.72
2019-03-23T18:35:30.273Z,7.67
2019-03-23T18:37:34.449Z,7.57
2019-03-23T18:38:34.666Z,7.60
2019-03-23T18:40:38.853Z,7.52
2019-03-23T18:41:39.123Z,7.49
2019-03-23T18:43:43.309Z,7.40
2019-03-23T18:44:43.592Z,7.45
2019-03-23T18:46:47.765Z,7.43
2019-03-23T18:47:48.056Z,7.27
2019-03-23T18:49:41.219Z,7.35
2019-03-23T18:50:42.699Z,7.37
2019-03-23T18:52:45.637Z,7.20
2019-03-23T18:53:45.916Z,7.10
2019-03-23T18:55:50.165Z,7.09
2019-03-23T18:56:50.452Z,7.12
2019-03-23T18:58:54.621Z,7.10
2019-03-23T18:59:54.928Z,7.05
2019-03-23T19:01:59.108Z,7.15
2019-03-23T19:02:59.493Z,7.09
2019-03-23T19:05:03.668Z,7.15
2019-03-23T19:06:03.906Z,7.15
2019-03-23T19:08:08.053Z,7.13
2019-03-23T19:09:08.290Z,7.17
2019-03-23T19:11:14.080Z,7.13
2019-03-23T19:12:12.696Z,7.09
2019-03-23T19:14:16.844Z,7.09
2019-03-23T19:15:17.081Z,6.98
2019-03-23T19:17:21.253Z,7.02
2019-03-23T19:18:21.485Z,6.98
2019-03-23T19:20:25.657Z,6.99
2019-03-23T19:21:25.889Z,7.09
2019-03-23T19:23:30.035Z,7.10
2019-03-23T19:24:30.282Z,7.05
2019-03-23T19:26:34.452Z,7.03
2019-03-23T19:27:34.688Z,6.92
2019-03-23T19:29:27.824Z,6.88
2019-03-23T19:30:28.002Z,6.87
2019-03-23T19:32:32.180Z,6.79
2019-03-23T19:33:32.415Z,6.69
2019-03-23T19:35:37.106Z,6.67
2019-03-23T19:36:37.338Z,6.64
2019-03-23T19:38:41.489Z,6.71
2019-03-23T19:39:41.724Z,6.61
2019-03-23T19:41:45.893Z,6.67
2019-03-23T19:42:46.128Z,6.62
2019-03-23T19:44:50.274Z,6.56
2019-03-23T19:45:50.514Z,6.55
2019-03-23T19:47:54.683Z,6.66
2019-03-23T19:48:54.962Z,6.69
2019-03-23T19:50:59.089Z,6.69
2019-03-23T19:51:59.335Z,6.70
2019-03-23T19:54:03.490Z,6.67
2019-03-23T19:55:03.725Z,6.61
2019-03-23T19:57:07.909Z,6.58
2019-03-23T19:58:08.126Z,6.64
2019-03-23T20:00:12.278Z,6.70